Terminal Aerodrome Forecast
Issued by NWS

Home | Current Version | Previous Version | Text Only | Print | Product List | Glossary On
Versions: 1 2 3 4 5 6 7 8 9 10 11 12 13 14
000
FTUS46 KSTO 110541
TAFSMF
TAF
KSMF 110541Z 1106/1206 VRB04KT P6SM SKC
     FM111300 00000KT 2SM BR BCFG FEW002
      TEMPO 1113/1117 1/4SM FG VV002
     FM111900 33004KT P6SM SKC=

USA.gov is the U.S. government's official web portal to all federal, state and local government web resources and services.